sensor_id;sensor_type;location;lat;lon;timestamp;temperature;humidity
46752;DHT22;32497;48.936;9.270;2022-08-07T00:03:12;16.90;45.20
46752;DHT22;32497;48.936;9.270;2022-08-07T00:08:13;17.10;45.20
46752;DHT22;32497;48.936;9.270;2022-08-07T00:13:17;17.10;45.10
46752;DHT22;32497;48.936;9.270;2022-08-07T00:18:21;17.00;46.40
46752;DHT22;32497;48.936;9.270;2022-08-07T00:23:22;16.90;46.40
46752;DHT22;32497;48.936;9.270;2022-08-07T00:28:25;16.70;47.10
46752;DHT22;32497;48.936;9.270;2022-08-07T00:33:26;16.60;47.90
46752;DHT22;32497;48.936;9.270;2022-08-07T00:38:27;16.70;47.60
46752;DHT22;32497;48.936;9.270;2022-08-07T00:43:30;16.70;48.20
46752;DHT22;32497;48.936;9.270;2022-08-07T00:48:31;16.80;47.90
46752;DHT22;32497;48.936;9.270;2022-08-07T00:53:32;16.80;48.20
46752;DHT22;32497;48.936;9.270;2022-08-07T00:58:34;16.70;49.10
46752;DHT22;32497;48.936;9.270;2022-08-07T01:03:35;16.70;48.90
46752;DHT22;32497;48.936;9.270;2022-08-07T01:08:36;16.70;48.90
46752;DHT22;32497;48.936;9.270;2022-08-07T01:13:40;16.70;48.80
46752;DHT22;32497;48.936;9.270;2022-08-07T01:18:41;16.60;50.10
46752;DHT22;32497;48.936;9.270;2022-08-07T01:23:45;16.50;49.20
46752;DHT22;32497;48.936;9.270;2022-08-07T01:28:49;16.60;50.10
46752;DHT22;32497;48.936;9.270;2022-08-07T01:33:57;16.60;49.30
46752;DHT22;32497;48.936;9.270;2022-08-07T01:39:01;16.60;49.60
46752;DHT22;32497;48.936;9.270;2022-08-07T01:44:03;16.60;50.80
46752;DHT22;32497;48.936;9.270;2022-08-07T01:49:08;16.60;50.00
46752;DHT22;32497;48.936;9.270;2022-08-07T01:54:12;16.60;50.40
46752;DHT22;32497;48.936;9.270;2022-08-07T01:59:24;16.50;50.10
46752;DHT22;32497;48.936;9.270;2022-08-07T02:04:29;16.40;50.40
46752;DHT22;32497;48.936;9.270;2022-08-07T02:09:38;16.30;50.40
46752;DHT22;32497;48.936;9.270;2022-08-07T02:14:44;16.40;50.30
46752;DHT22;32497;48.936;9.270;2022-08-07T02:19:54;16.20;51.50
46752;DHT22;32497;48.936;9.270;2022-08-07T02:24:58;16.20;51.40
46752;DHT22;32497;48.936;9.270;2022-08-07T02:30:03;16.10;51.80
46752;DHT22;32497;48.936;9.270;2022-08-07T02:35:08;16.10;51.90
46752;DHT22;32497;48.936;9.270;2022-08-07T02:40:12;16.00;52.30
46752;DHT22;32497;48.936;9.270;2022-08-07T02:45:18;16.00;52.70
46752;DHT22;32497;48.936;9.270;2022-08-07T02:50:20;15.90;52.60
46752;DHT22;32497;48.936;9.270;2022-08-07T02:55:25;15.80;52.90
46752;DHT22;32497;48.936;9.270;2022-08-07T03:00:27;15.90;53.60
46752;DHT22;32497;48.936;9.270;2022-08-07T03:05:29;15.80;53.70
46752;DHT22;32497;48.936;9.270;2022-08-07T03:10:32;15.70;54.40
46752;DHT22;32497;48.936;9.270;2022-08-07T03:15:33;15.70;55.80
46752;DHT22;32497;48.936;9.270;2022-08-07T03:20:35;15.50;55.90
46752;DHT22;32497;48.936;9.270;2022-08-07T03:25:40;15.30;56.20
46752;DHT22;32497;48.936;9.270;2022-08-07T03:30:43;15.30;56.90
46752;DHT22;32497;48.936;9.270;2022-08-07T03:35:45;15.10;55.80
46752;DHT22;32497;48.936;9.270;2022-08-07T03:40:50;14.80;56.20
46752;DHT22;32497;48.936;9.270;2022-08-07T03:45:51;14.70;57.00
46752;DHT22;32497;48.936;9.270;2022-08-07T03:50:58;14.70;58.80
46752;DHT22;32497;48.936;9.270;2022-08-07T03:56:09;14.90;57.60
46752;DHT22;32497;48.936;9.270;2022-08-07T04:01:13;14.90;58.30
46752;DHT22;32497;48.936;9.270;2022-08-07T04:06:17;15.00;59.60
46752;DHT22;32497;48.936;9.270;2022-08-07T04:11:19;15.00;60.20
46752;DHT22;32497;48.936;9.270;2022-08-07T04:16:21;14.90;60.80
46752;DHT22;32497;48.936;9.270;2022-08-07T04:21:22;14.90;59.50
46752;DHT22;32497;48.936;9.270;2022-08-07T04:26:25;14.80;60.00
46752;DHT22;32497;48.936;9.270;2022-08-07T04:31:27;14.90;60.60
46752;DHT22;32497;48.936;9.270;2022-08-07T04:36:28;15.00;60.00
46752;DHT22;32497;48.936;9.270;2022-08-07T04:41:30;14.90;61.20
46752;DHT22;32497;48.936;9.270;2022-08-07T04:46:37;14.90;62.30
46752;DHT22;32497;48.936;9.270;2022-08-07T04:51:50;14.80;62.00
46752;DHT22;32497;48.936;9.270;2022-08-07T04:57:04;15.00;63.00
46752;DHT22;32497;48.936;9.270;2022-08-07T05:02:11;15.10;62.30
46752;DHT22;32497;48.936;9.270;2022-08-07T05:07:17;15.20;61.80
46752;DHT22;32497;48.936;9.270;2022-08-07T05:12:25;15.30;62.00
46752;DHT22;32497;48.936;9.270;2022-08-07T05:17:27;15.40;61.40
46752;DHT22;32497;48.936;9.270;2022-08-07T05:22:31;15.70;61.10
46752;DHT22;32497;48.936;9.270;2022-08-07T05:27:37;15.70;62.30
46752;DHT22;32497;48.936;9.270;2022-08-07T05:32:40;15.80;61.70
46752;DHT22;32497;48.936;9.270;2022-08-07T05:37:42;16.10;62.40
46752;DHT22;32497;48.936;9.270;2022-08-07T05:42:45;16.20;62.20
46752;DHT22;32497;48.936;9.270;2022-08-07T05:47:47;16.40;62.10
46752;DHT22;32497;48.936;9.270;2022-08-07T05:52:48;16.60;62.80
46752;DHT22;32497;48.936;9.270;2022-08-07T05:57:51;16.70;63.20
46752;DHT22;32497;48.936;9.270;2022-08-07T06:02:55;16.80;63.60
46752;DHT22;32497;48.936;9.270;2022-08-07T06:07:58;16.90;63.20
46752;DHT22;32497;48.936;9.270;2022-08-07T06:13:02;17.10;63.30
46752;DHT22;32497;48.936;9.270;2022-08-07T06:18:04;17.30;62.50
46752;DHT22;32497;48.936;9.270;2022-08-07T06:23:07;17.50;61.90
46752;DHT22;32497;48.936;9.270;2022-08-07T06:28:15;17.70;61.80
46752;DHT22;32497;48.936;9.270;2022-08-07T06:33:16;18.20;62.50
46752;DHT22;32497;48.936;9.270;2022-08-07T06:38:20;18.70;60.90
46752;DHT22;32497;48.936;9.270;2022-08-07T06:43:25;19.10;60.30
46752;DHT22;32497;48.936;9.270;2022-08-07T06:48:40;19.10;59.50
46752;DHT22;32497;48.936;9.270;2022-08-07T06:53:42;19.00;60.00
46752;DHT22;32497;48.936;9.270;2022-08-07T06:58:48;19.60;59.80
46752;DHT22;32497;48.936;9.270;2022-08-07T07:03:50;19.80;58.30
46752;DHT22;32497;48.936;9.270;2022-08-07T07:08:51;20.20;58.80
46752;DHT22;32497;48.936;9.270;2022-08-07T07:13:54;19.90;56.50
46752;DHT22;32497;48.936;9.270;2022-08-07T07:19:00;20.40;57.30
46752;DHT22;32497;48.936;9.270;2022-08-07T07:24:04;20.70;54.70
46752;DHT22;32497;48.936;9.270;2022-08-07T07:29:10;21.20;54.70
46752;DHT22;32497;48.936;9.270;2022-08-07T07:34:14;21.20;52.50
46752;DHT22;32497;48.936;9.270;2022-08-07T07:39:16;21.50;50.20
46752;DHT22;32497;48.936;9.270;2022-08-07T07:44:21;21.50;49.90
46752;DHT22;32497;48.936;9.270;2022-08-07T07:49:24;21.40;48.70
46752;DHT22;32497;48.936;9.270;2022-08-07T07:54:26;21.80;46.20
46752;DHT22;32497;48.936;9.270;2022-08-07T07:59:29;22.00;47.30
46752;DHT22;32497;48.936;9.270;2022-08-07T08:04:31;22.40;47.20
46752;DHT22;32497;48.936;9.270;2022-08-07T08:09:34;22.70;47.50
46752;DHT22;32497;48.936;9.270;2022-08-07T08:14:37;22.40;44.80
46752;DHT22;32497;48.936;9.270;2022-08-07T08:19:39;22.60;42.70
46752;DHT22;32497;48.936;9.270;2022-08-07T08:24:42;22.90;41.60
46752;DHT22;32497;48.936;9.270;2022-08-07T08:29:49;23.30;40.10
46752;DHT22;32497;48.936;9.270;2022-08-07T08:34:53;23.80;38.20
46752;DHT22;32497;48.936;9.270;2022-08-07T08:39:54;23.80;38.20
46752;DHT22;32497;48.936;9.270;2022-08-07T08:45:03;23.70;39.70
46752;DHT22;32497;48.936;9.270;2022-08-07T08:50:11;23.60;40.60
46752;DHT22;32497;48.936;9.270;2022-08-07T08:55:22;23.70;38.50
46752;DHT22;32497;48.936;9.270;2022-08-07T09:00:31;23.70;38.20
46752;DHT22;32497;48.936;9.270;2022-08-07T09:05:42;23.90;36.80
46752;DHT22;32497;48.936;9.270;2022-08-07T09:10:51;24.40;34.90
46752;DHT22;32497;48.936;9.270;2022-08-07T09:16:01;24.50;36.10
46752;DHT22;32497;48.936;9.270;2022-08-07T09:21:11;24.60;35.80
46752;DHT22;32497;48.936;9.270;2022-08-07T09:26:21;23.90;37.10
46752;DHT22;32497;48.936;9.270;2022-08-07T09:31:34;24.20;37.20
46752;DHT22;32497;48.936;9.270;2022-08-07T09:36:41;25.20;36.00
46752;DHT22;32497;48.936;9.270;2022-08-07T09:41:50;25.60;34.60
46752;DHT22;32497;48.936;9.270;2022-08-07T09:47:08;25.70;34.70
46752;DHT22;32497;48.936;9.270;2022-08-07T09:52:20;25.90;32.40
46752;DHT22;32497;48.936;9.270;2022-08-07T10:09:02;26.10;29.90
46752;DHT22;32497;48.936;9.270;2022-08-07T10:14:11;26.30;30.30
46752;DHT22;32497;48.936;9.270;2022-08-07T10:19:33;26.60;28.90
46752;DHT22;32497;48.936;9.270;2022-08-07T10:24:50;26.50;30.60
46752;DHT22;32497;48.936;9.270;2022-08-07T10:30:06;26.70;30.90
46752;DHT22;32497;48.936;9.270;2022-08-07T10:35:14;26.60;30.20
46752;DHT22;32497;48.936;9.270;2022-08-07T10:40:24;26.00;31.10
46752;DHT22;32497;48.936;9.270;2022-08-07T10:45:32;26.30;29.20
46752;DHT22;32497;48.936;9.270;2022-08-07T10:50:36;26.50;28.80
46752;DHT22;32497;48.936;9.270;2022-08-07T10:55:45;26.90;29.10
46752;DHT22;32497;48.936;9.270;2022-08-07T11:00:54;26.90;28.40
46752;DHT22;32497;48.936;9.270;2022-08-07T11:06:04;26.80;28.30
46752;DHT22;32497;48.936;9.270;2022-08-07T11:11:11;27.40;26.10
46752;DHT22;32497;48.936;9.270;2022-08-07T11:16:18;27.40;28.20
46752;DHT22;32497;48.936;9.270;2022-08-07T11:21:28;28.50;26.60
46752;DHT22;32497;48.936;9.270;2022-08-07T11:26:40;28.20;27.30
46752;DHT22;32497;48.936;9.270;2022-08-07T11:31:50;28.50;26.70
46752;DHT22;32497;48.936;9.270;2022-08-07T11:36:58;28.80;25.20
46752;DHT22;32497;48.936;9.270;2022-08-07T11:42:12;28.40;23.90
46752;DHT22;32497;48.936;9.270;2022-08-07T11:47:24;28.30;25.70
46752;DHT22;32497;48.936;9.270;2022-08-07T11:52:38;29.00;27.60
46752;DHT22;32497;48.936;9.270;2022-08-07T11:57:49;29.60;25.00
46752;DHT22;32497;48.936;9.270;2022-08-07T12:03:29;30.00;26.00
46752;DHT22;32497;48.936;9.270;2022-08-07T12:08:38;30.50;23.20
46752;DHT22;32497;48.936;9.270;2022-08-07T12:13:45;30.70;22.50
46752;DHT22;32497;48.936;9.270;2022-08-07T12:19:00;30.50;23.80
46752;DHT22;32497;48.936;9.270;2022-08-07T12:24:12;30.80;23.00
46752;DHT22;32497;48.936;9.270;2022-08-07T12:29:18;30.50;23.70
46752;DHT22;32497;48.936;9.270;2022-08-07T12:34:20;30.80;25.20
46752;DHT22;32497;48.936;9.270;2022-08-07T12:39:23;30.70;24.90
46752;DHT22;32497;48.936;9.270;2022-08-07T12:44:28;30.50;25.40
46752;DHT22;32497;48.936;9.270;2022-08-07T12:49:36;31.30;22.30
46752;DHT22;32497;48.936;9.270;2022-08-07T12:54:43;31.20;22.80
46752;DHT22;32497;48.936;9.270;2022-08-07T12:59:50;31.00;22.50
46752;DHT22;32497;48.936;9.270;2022-08-07T13:05:04;31.10;22.50
46752;DHT22;32497;48.936;9.270;2022-08-07T13:10:29;31.20;25.10
46752;DHT22;32497;48.936;9.270;2022-08-07T13:15:39;31.10;25.70
46752;DHT22;32497;48.936;9.270;2022-08-07T13:20:46;30.50;22.20
46752;DHT22;32497;48.936;9.270;2022-08-07T13:25:54;31.20;23.70
46752;DHT22;32497;48.936;9.270;2022-08-07T13:31:09;31.10;23.20
46752;DHT22;32497;48.936;9.270;2022-08-07T13:36:15;31.60;24.00
46752;DHT22;32497;48.936;9.270;2022-08-07T13:41:24;31.90;26.30
46752;DHT22;32497;48.936;9.270;2022-08-07T13:46:30;32.40;25.60
46752;DHT22;32497;48.936;9.270;2022-08-07T13:51:33;32.50;27.30
46752;DHT22;32497;48.936;9.270;2022-08-07T13:56:37;32.60;22.80
46752;DHT22;32497;48.936;9.270;2022-08-07T14:01:47;32.20;24.00
46752;DHT22;32497;48.936;9.270;2022-08-07T14:06:51;32.70;21.70
46752;DHT22;32497;48.936;9.270;2022-08-07T14:11:57;32.90;24.90
46752;DHT22;32497;48.936;9.270;2022-08-07T14:17:02;32.70;26.20
46752;DHT22;32497;48.936;9.270;2022-08-07T14:22:05;32.90;23.40
46752;DHT22;32497;48.936;9.270;2022-08-07T14:27:09;32.60;21.00
46752;DHT22;32497;48.936;9.270;2022-08-07T14:32:12;32.20;22.40
46752;DHT22;32497;48.936;9.270;2022-08-07T14:37:16;32.40;23.10
46752;DHT22;32497;48.936;9.270;2022-08-07T14:42:22;32.80;24.00
46752;DHT22;32497;48.936;9.270;2022-08-07T14:47:25;32.70;22.40
46752;DHT22;32497;48.936;9.270;2022-08-07T14:52:31;32.50;20.30
46752;DHT22;32497;48.936;9.270;2022-08-07T14:57:33;31.90;26.40
46752;DHT22;32497;48.936;9.270;2022-08-07T15:02:37;32.10;24.70
46752;DHT22;32497;48.936;9.270;2022-08-07T15:07:42;32.30;23.70
46752;DHT22;32497;48.936;9.270;2022-08-07T15:12:44;32.60;23.80
46752;DHT22;32497;48.936;9.270;2022-08-07T15:17:52;32.30;24.10
46752;DHT22;32497;48.936;9.270;2022-08-07T15:22:57;32.70;23.80
46752;DHT22;32497;48.936;9.270;2022-08-07T15:28:02;32.50;23.90
46752;DHT22;32497;48.936;9.270;2022-08-07T15:33:06;32.50;23.40
46752;DHT22;32497;48.936;9.270;2022-08-07T15:38:08;32.50;24.70
46752;DHT22;32497;48.936;9.270;2022-08-07T15:43:15;32.30;23.70
46752;DHT22;32497;48.936;9.270;2022-08-07T15:48:22;32.10;25.00
46752;DHT22;32497;48.936;9.270;2022-08-07T15:53:26;32.00;24.40
46752;DHT22;32497;48.936;9.270;2022-08-07T15:58:47;31.60;23.50
46752;DHT22;32497;48.936;9.270;2022-08-07T16:03:52;31.30;24.20
46752;DHT22;32497;48.936;9.270;2022-08-07T16:08:58;31.70;26.70
46752;DHT22;32497;48.936;9.270;2022-08-07T16:14:08;31.80;25.10
46752;DHT22;32497;48.936;9.270;2022-08-07T16:19:28;31.70;25.30
46752;DHT22;32497;48.936;9.270;2022-08-07T16:24:32;31.60;24.10
46752;DHT22;32497;48.936;9.270;2022-08-07T16:29:50;30.50;24.50
46752;DHT22;32497;48.936;9.270;2022-08-07T16:34:58;30.20;23.50
46752;DHT22;32497;48.936;9.270;2022-08-07T16:40:33;29.70;26.00
46752;DHT22;32497;48.936;9.270;2022-08-07T16:45:55;29.00;26.10
46752;DHT22;32497;48.936;9.270;2022-08-07T16:51:07;28.60;26.40
46752;DHT22;32497;48.936;9.270;2022-08-07T16:56:18;28.40;26.60
46752;DHT22;32497;48.936;9.270;2022-08-07T17:01:33;28.20;26.20
46752;DHT22;32497;48.936;9.270;2022-08-07T17:06:48;27.60;26.40
46752;DHT22;32497;48.936;9.270;2022-08-07T17:11:56;27.20;26.90
46752;DHT22;32497;48.936;9.270;2022-08-07T17:17:03;27.10;27.70
46752;DHT22;32497;48.936;9.270;2022-08-07T17:22:13;26.90;27.50
46752;DHT22;32497;48.936;9.270;2022-08-07T17:27:18;26.70;27.50
46752;DHT22;32497;48.936;9.270;2022-08-07T17:32:26;26.60;28.10
46752;DHT22;32497;48.936;9.270;2022-08-07T17:37:33;26.40;27.30
46752;DHT22;32497;48.936;9.270;2022-08-07T17:42:43;26.20;27.70
46752;DHT22;32497;48.936;9.270;2022-08-07T17:47:49;26.10;28.30
46752;DHT22;32497;48.936;9.270;2022-08-07T17:53:03;26.00;29.10
46752;DHT22;32497;48.936;9.270;2022-08-07T17:58:08;25.80;28.20
46752;DHT22;32497;48.936;9.270;2022-08-07T18:03:19;25.70;29.10
46752;DHT22;32497;48.936;9.270;2022-08-07T18:08:29;25.60;29.40
46752;DHT22;32497;48.936;9.270;2022-08-07T18:13:38;25.40;29.60
46752;DHT22;32497;48.936;9.270;2022-08-07T18:18:45;25.20;28.70
46752;DHT22;32497;48.936;9.270;2022-08-07T18:24:00;25.10;30.00
46752;DHT22;32497;48.936;9.270;2022-08-07T18:29:06;24.90;30.50
46752;DHT22;32497;48.936;9.270;2022-08-07T18:34:21;24.70;30.40
46752;DHT22;32497;48.936;9.270;2022-08-07T18:39:47;24.50;29.70
46752;DHT22;32497;48.936;9.270;2022-08-07T18:45:00;24.20;30.60
46752;DHT22;32497;48.936;9.270;2022-08-07T18:50:33;24.10;32.10
46752;DHT22;32497;48.936;9.270;2022-08-07T18:55:50;23.90;32.30
46752;DHT22;32497;48.936;9.270;2022-08-07T19:01:02;23.70;31.50
46752;DHT22;32497;48.936;9.270;2022-08-07T19:06:10;23.60;31.70
46752;DHT22;32497;48.936;9.270;2022-08-07T19:11:16;23.50;33.20
46752;DHT22;32497;48.936;9.270;2022-08-07T19:16:22;23.50;33.60
46752;DHT22;32497;48.936;9.270;2022-08-07T19:21:35;23.40;34.10
46752;DHT22;32497;48.936;9.270;2022-08-07T19:26:42;23.30;34.10
46752;DHT22;32497;48.936;9.270;2022-08-07T19:31:48;23.20;33.50
46752;DHT22;32497;48.936;9.270;2022-08-07T19:36:52;23.20;34.50
46752;DHT22;32497;48.936;9.270;2022-08-07T19:41:58;23.20;34.00
46752;DHT22;32497;48.936;9.270;2022-08-07T19:47:04;23.10;33.90
46752;DHT22;32497;48.936;9.270;2022-08-07T19:52:06;22.90;33.80
46752;DHT22;32497;48.936;9.270;2022-08-07T19:57:12;22.70;33.10
46752;DHT22;32497;48.936;9.270;2022-08-07T20:02:22;22.50;35.00
46752;DHT22;32497;48.936;9.270;2022-08-07T20:07:26;22.30;35.80
46752;DHT22;32497;48.936;9.270;2022-08-07T20:12:30;22.10;36.40
46752;DHT22;32497;48.936;9.270;2022-08-07T20:17:33;22.00;36.50
46752;DHT22;32497;48.936;9.270;2022-08-07T20:22:36;21.70;36.70
46752;DHT22;32497;48.936;9.270;2022-08-07T20:27:45;21.70;36.20
46752;DHT22;32497;48.936;9.270;2022-08-07T20:32:48;21.70;37.10
46752;DHT22;32497;48.936;9.270;2022-08-07T20:37:51;21.60;37.30
46752;DHT22;32497;48.936;9.270;2022-08-07T20:42:55;21.50;36.40
46752;DHT22;32497;48.936;9.270;2022-08-07T20:47:57;21.30;36.40
46752;DHT22;32497;48.936;9.270;2022-08-07T20:52:59;21.30;37.20
46752;DHT22;32497;48.936;9.270;2022-08-07T20:58:02;21.40;37.80
46752;DHT22;32497;48.936;9.270;2022-08-07T21:03:04;21.40;38.50
46752;DHT22;32497;48.936;9.270;2022-08-07T21:08:10;21.10;38.40
46752;DHT22;32497;48.936;9.270;2022-08-07T21:13:17;20.90;37.60
46752;DHT22;32497;48.936;9.270;2022-08-07T21:18:23;20.80;38.50
46752;DHT22;32497;48.936;9.270;2022-08-07T21:23:31;20.60;39.30
46752;DHT22;32497;48.936;9.270;2022-08-07T21:28:45;20.70;38.30
46752;DHT22;32497;48.936;9.270;2022-08-07T21:33:51;20.50;38.30
46752;DHT22;32497;48.936;9.270;2022-08-07T21:39:02;20.40;38.40
46752;DHT22;32497;48.936;9.270;2022-08-07T21:44:12;20.40;38.30
46752;DHT22;32497;48.936;9.270;2022-08-07T21:49:19;20.40;38.40
46752;DHT22;32497;48.936;9.270;2022-08-07T21:54:36;20.30;39.70
46752;DHT22;32497;48.936;9.270;2022-08-07T21:59:52;20.20;39.00
46752;DHT22;32497;48.936;9.270;2022-08-07T22:04:58;19.80;42.20
46752;DHT22;32497;48.936;9.270;2022-08-07T22:10:02;19.80;41.30
46752;DHT22;32497;48.936;9.270;2022-08-07T22:15:11;19.70;40.40
46752;DHT22;32497;48.936;9.270;2022-08-07T22:20:18;19.60;43.00
46752;DHT22;32497;48.936;9.270;2022-08-07T22:25:25;19.20;43.80
46752;DHT22;32497;48.936;9.270;2022-08-07T22:30:34;19.20;44.90
46752;DHT22;32497;48.936;9.270;2022-08-07T22:35:42;18.80;44.10
46752;DHT22;32497;48.936;9.270;2022-08-07T22:40:51;18.70;44.10
46752;DHT22;32497;48.936;9.270;2022-08-07T22:51:52;18.40;44.70
46752;DHT22;32497;48.936;9.270;2022-08-07T22:57:02;18.40;45.40
46752;DHT22;32497;48.936;9.270;2022-08-07T23:02:33;18.40;45.70
46752;DHT22;32497;48.936;9.270;2022-08-07T23:07:44;18.20;46.60
46752;DHT22;32497;48.936;9.270;2022-08-07T23:12:56;18.00;45.20
46752;DHT22;32497;48.936;9.270;2022-08-07T23:18:12;17.90;46.80
46752;DHT22;32497;48.936;9.270;2022-08-07T23:29:27;17.60;47.60
46752;DHT22;32497;48.936;9.270;2022-08-07T23:34:55;17.40;47.20
46752;DHT22;32497;48.936;9.270;2022-08-07T23:40:13;17.60;47.60
46752;DHT22;32497;48.936;9.270;2022-08-07T23:45:22;17.50;47.90
46752;DHT22;32497;48.936;9.270;2022-08-07T23:50:32;17.60;48.50
46752;DHT22;32497;48.936;9.270;2022-08-07T23:55:40;17.60;50.40
